Time;durP1;ratioP1;P1;durP2;ratioP2;P2;SDS_P1;SDS_P2;PMS_P1;PMS_P2;Temp;Humidity;BMP_temperature;BMP_pressure;BME280_temperature;BME280_humidity;BME280_pressure;Samples;Min_cycle;Max_cycle;Signal;HPM_P1;HPM_P2
2023/07/12 00:00:20;;;;;;;3.43;3.13;;;26.30;71.10;;;;;;5061195;28;20299;-46
2023/07/12 00:02:46;;;;;;;5.43;2.73;;;26.30;71.10;;;;;;5058726;28;20249;-47
2023/07/12 00:05:12;;;;;;;3.60;3.27;;;26.10;70.60;;;;;;5062981;28;20978;-49
2023/07/12 00:07:37;;;;;;;5.00;2.80;;;25.60;72.60;;;;;;5064039;28;20199;-50
2023/07/12 00:10:11;;;;;;;2.70;2.50;;;25.30;75.00;;;;;;5065612;28;20295;-50
2023/07/12 00:12:36;;;;;;;3.30;2.80;;;25.40;73.90;;;;;;5066380;28;20597;-50
2023/07/12 00:15:02;;;;;;;2.97;2.70;;;25.50;72.80;;;;;;5061118;28;20481;-48
2023/07/12 00:17:28;;;;;;;3.57;2.63;;;25.90;71.30;;;;;;5060348;28;20196;-50
2023/07/12 00:19:53;;;;;;;2.80;2.60;;;26.10;69.70;;;;;;5059294;28;20442;-48
2023/07/12 00:22:19;;;;;;;2.53;2.33;;;26.10;69.00;;;;;;5066047;28;20550;-51
2023/07/12 00:24:45;;;;;;;3.23;2.77;;;26.00;71.80;;;;;;5059286;28;20564;-48
2023/07/12 00:27:10;;;;;;;4.93;2.60;;;25.60;74.90;;;;;;5069573;28;20188;-49
2023/07/12 00:29:36;;;;;;;2.50;2.30;;;25.30;75.80;;;;;;5073947;28;20602;-48
2023/07/12 00:32:01;;;;;;;2.77;2.50;;;25.20;75.10;;;;;;5067131;28;20187;-48
2023/07/12 00:34:27;;;;;;;3.97;2.60;;;24.80;77.60;;;;;;5070549;28;20910;-48
2023/07/12 00:36:52;;;;;;;2.93;2.53;;;24.70;75.70;;;;;;5073650;28;20275;-48
2023/07/12 00:39:18;;;;;;;2.97;2.40;;;24.70;75.90;;;;;;5073454;28;20250;-47
2023/07/12 00:42:06;;;;;;;2.93;2.60;;;25.00;73.80;;;;;;5074310;28;20647;-47
2023/07/12 00:44:54;;;;;;;2.70;2.27;;;25.30;72.50;;;;;;5073792;28;20294;-47
2023/07/12 00:47:20;;;;;;;2.30;2.10;;;25.40;71.60;;;;;;5074095;28;20770;-52
2023/07/12 00:49:47;;;;;;;2.67;2.43;;;25.50;71.00;;;;;;5068789;28;20430;-48
2023/07/12 00:52:15;;;;;;;3.43;2.73;;;25.80;69.90;;;;;;5067145;28;20422;-47
2023/07/12 00:54:49;;;;;;;5.70;2.30;;;25.70;70.30;;;;;;5071063;28;20476;-53
2023/07/12 00:57:15;;;;;;;2.03;1.83;;;25.80;69.50;;;;;;5078921;28;20928;-52
2023/07/12 00:59:41;;;;;;;2.20;2.10;;;25.90;69.10;;;;;;5076942;28;20447;-47
2023/07/12 01:02:08;;;;;;;2.50;2.30;;;26.30;67.40;;;;;;5072840;28;20197;-48
2023/07/12 01:04:42;;;;;;;3.23;2.40;;;26.40;66.80;;;;;;5064252;28;20438;-48
2023/07/12 01:07:09;;;;;;;2.20;1.93;;;26.20;67.40;;;;;;5064835;28;20434;-48
2023/07/12 01:09:35;;;;;;;2.70;2.50;;;25.90;68.30;;;;;;5064445;28;20434;-49
2023/07/12 01:12:01;;;;;;;3.33;2.20;;;26.10;68.70;;;;;;5064102;28;20477;-47
2023/07/12 01:14:27;;;;;;;2.50;2.30;;;26.30;67.10;;;;;;5066614;28;20309;-48
2023/07/12 01:17:02;;;;;;;2.23;2.13;;;26.40;66.10;;;;;;5073346;28;20473;-48
2023/07/12 01:19:29;;;;;;;2.60;2.40;;;26.70;65.30;;;;;;5070237;28;20935;-47
2023/07/12 01:21:56;;;;;;;2.40;2.20;;;26.70;64.40;;;;;;5060519;28;20446;-53
2023/07/12 01:24:23;;;;;;;1.93;1.83;;;26.70;64.10;;;;;;5062434;28;20539;-48
2023/07/12 01:26:53;;;;;;;3.43;1.80;;;26.70;63.90;;;;;;5063049;28;20434;-50
2023/07/12 01:29:20;;;;;;;2.70;2.03;;;26.60;64.00;;;;;;5064838;28;20453;-51
2023/07/12 01:31:46;;;;;;;2.17;1.80;;;26.60;64.30;;;;;;5073095;28;20442;-47
2023/07/12 01:34:13;;;;;;;2.10;1.93;;;26.40;64.80;;;;;;5069755;28;20447;-45
2023/07/12 01:36:38;;;;;;;2.10;2.00;;;26.20;65.30;;;;;;5066066;28;20481;-47
2023/07/12 01:39:05;;;;;;;4.47;2.10;;;25.80;66.70;;;;;;5060898;28;20820;-50
2023/07/12 01:41:31;;;;;;;4.63;2.47;;;25.10;70.00;;;;;;5066838;28;20192;-46
2023/07/12 01:43:57;;;;;;;2.20;2.00;;;24.80;72.20;;;;;;5067328;28;20461;-48
2023/07/12 01:46:23;;;;;;;2.10;1.90;;;25.00;73.00;;;;;;5073361;28;20585;-47
2023/07/12 01:48:49;;;;;;;2.67;2.20;;;25.60;70.10;;;;;;5078462;28;20451;-48
2023/07/12 01:51:16;;;;;;;2.57;2.33;;;26.00;68.30;;;;;;5074812;28;20444;-49
2023/07/12 01:53:41;;;;;;;3.90;2.30;;;26.10;67.40;;;;;;5066734;28;20199;-47
2023/07/12 01:56:09;;;;;;;2.93;2.07;;;26.00;68.30;;;;;;5075022;28;20480;-50
2023/07/12 01:58:35;;;;;;;3.10;2.30;;;25.90;69.70;;;;;;5072055;28;20221;-51
2023/07/12 02:01:00;;;;;;;4.67;2.20;;;25.10;72.40;;;;;;5060805;28;21095;-48
2023/07/12 02:03:27;;;;;;;4.33;2.20;;;24.70;75.80;;;;;;5069101;28;20199;-50
2023/07/12 02:05:53;;;;;;;2.93;2.50;;;25.00;74.80;;;;;;5067622;28;20211;-50
2023/07/12 02:08:19;;;;;;;2.73;2.30;;;25.00;73.50;;;;;;5059604;28;20444;-51
2023/07/12 02:10:46;;;;;;;2.23;2.03;;;25.20;73.00;;;;;;5067100;28;20446;-50
2023/07/12 02:13:12;;;;;;;3.90;2.20;;;25.30;72.00;;;;;;5065923;28;20492;-51
2023/07/12 02:15:37;;;;;;;3.37;2.10;;;25.50;70.80;;;;;;5074291;28;20968;-48
2023/07/12 02:18:03;;;;;;;2.67;2.03;;;25.70;69.20;;;;;;5065088;28;20208;-49
2023/07/12 02:20:29;;;;;;;2.30;1.90;;;25.70;68.60;;;;;;5061144;28;20600;-49
2023/07/12 02:22:55;;;;;;;3.53;2.30;;;25.70;67.50;;;;;;5060877;28;20441;-51
2023/07/12 02:25:21;;;;;;;3.37;2.40;;;25.90;67.40;;;;;;5066263;28;20226;-48
2023/07/12 02:27:47;;;;;;;2.80;2.60;;;26.20;66.40;;;;;;5077031;28;20529;-49
2023/07/12 02:30:16;;;;;;;3.97;2.37;;;26.00;62.60;;;;;;5071832;28;20438;-48
2023/07/12 02:32:43;;;;;;;2.20;1.97;;;25.50;67.60;;;;;;5075651;28;20925;-49
2023/07/12 02:35:08;;;;;;;3.17;2.50;;;25.30;66.50;;;;;;5069757;28;21300;-49
2023/07/12 02:37:35;;;;;;;2.63;2.30;;;25.50;67.70;;;;;;5071588;28;20457;-48
2023/07/12 02:40:02;;;;;;;4.27;2.37;;;25.80;67.00;;;;;;5062312;28;20180;-48
2023/07/12 02:42:28;;;;;;;3.30;2.20;;;26.00;65.50;;;;;;5071876;28;20437;-51
2023/07/12 02:44:53;;;;;;;2.53;2.00;;;26.10;65.50;;;;;;5069443;28;20990;-51
2023/07/12 02:47:19;;;;;;;3.07;2.10;;;26.30;64.60;;;;;;5071705;28;20822;-49
2023/07/12 02:49:45;;;;;;;6.07;2.77;;;26.40;64.10;;;;;;5068228;28;20187;-49
2023/07/12 02:52:10;;;;;;;2.77;2.20;;;26.70;63.00;;;;;;5070601;28;20261;-50
2023/07/12 02:54:36;;;;;;;3.00;2.10;;;26.80;62.70;;;;;;5071362;28;20211;-49
2023/07/12 02:57:03;;;;;;;2.13;2.00;;;26.80;62.30;;;;;;5071176;28;20253;-50
2023/07/12 02:59:29;;;;;;;2.77;2.00;;;27.10;61.30;;;;;;5071057;28;20215;-52
2023/07/12 03:01:55;;;;;;;3.40;2.30;;;27.30;60.10;;;;;;5076828;28;20889;-50
2023/07/12 03:04:21;;;;;;;5.63;2.90;;;27.40;59.70;;;;;;5086112;28;20445;-48
2023/07/12 03:06:47;;;;;;;3.17;2.30;;;27.50;59.40;;;;;;5069907;28;20203;-48
2023/07/12 03:09:13;;;;;;;2.73;2.30;;;27.50;59.30;;;;;;5069666;28;20438;-48
2023/07/12 03:11:39;;;;;;;4.83;3.00;;;27.70;58.90;;;;;;5084455;28;20448;-48
2023/07/12 03:14:06;;;;;;;5.07;2.23;;;27.70;58.40;;;;;;5075406;28;20642;-51
2023/07/12 03:16:32;;;;;;;2.43;2.23;;;27.60;58.70;;;;;;5067274;28;20220;-50
2023/07/12 03:19:00;;;;;;;2.77;2.57;;;27.40;59.30;;;;;;5072153;28;20949;-48
2023/07/12 03:21:25;;;;;;;2.67;2.43;;;27.40;59.40;;;;;;5071224;28;20468;-49
2023/07/12 03:23:52;;;;;;;2.57;2.20;;;27.60;59.00;;;;;;5061426;28;20477;-48
2023/07/12 03:26:18;;;;;;;2.80;2.43;;;27.60;58.90;;;;;;5074624;28;20620;-49
2023/07/12 03:28:44;;;;;;;6.37;2.40;;;27.60;58.80;;;;;;5075323;28;20538;-49
2023/07/12 03:31:18;;;;;;;2.23;2.03;;;27.60;59.00;;;;;;5076597;28;20855;-52
2023/07/12 03:33:45;;;;;;;5.07;2.17;;;27.60;58.90;;;;;;5065812;28;20199;-48
2023/07/12 03:36:12;;;;;;;3.70;2.90;;;27.70;58.40;;;;;;5067325;28;20489;-48
2023/07/12 03:38:38;;;;;;;5.63;4.23;;;27.70;58.30;;;;;;5069473;28;20999;-52
2023/07/12 03:41:05;;;;;;;3.33;3.03;;;27.80;58.30;;;;;;5066162;28;20445;-47
2023/07/12 03:43:32;;;;;;;2.93;2.43;;;27.80;58.20;;;;;;5079395;28;20210;-47
2023/07/12 03:45:58;;;;;;;3.80;2.90;;;28.00;57.10;;;;;;5073465;28;20892;-52
2023/07/12 03:48:24;;;;;;;3.90;2.80;;;28.20;56.70;;;;;;5078469;28;20450;-51
2023/07/12 03:50:51;;;;;;;6.70;3.03;;;28.30;56.30;;;;;;5076841;28;20206;-48
2023/07/12 03:53:18;;;;;;;4.97;3.23;;;28.50;56.00;;;;;;5072837;28;20437;-47
2023/07/12 03:55:45;;;;;;;6.73;2.90;;;28.50;55.80;;;;;;5066215;28;20730;-47
2023/07/12 03:58:13;;;;;;;2.60;2.40;;;28.30;55.80;;;;;;5063632;28;20437;-48
2023/07/12 04:00:41;;;;;;;9.20;2.70;;;28.40;56.00;;;;;;5065720;28;20541;-47
2023/07/12 04:03:06;;;;;;;4.30;2.57;;;28.50;56.00;;;;;;5078722;28;20513;-48
2023/07/12 04:05:39;;;;;;;3.67;3.37;;;28.60;55.60;;;;;;5071137;28;20869;-48
2023/07/12 04:08:05;;;;;;;3.30;2.97;;;28.70;55.20;;;;;;5072960;28;20188;-48
2023/07/12 04:10:31;;;;;;;6.20;3.10;;;28.80;55.00;;;;;;5063500;28;20867;-47
2023/07/12 04:12:58;;;;;;;3.87;2.60;;;28.80;54.90;;;;;;5067043;28;20478;-47
2023/07/12 04:15:23;;;;;;;3.17;2.97;;;28.80;54.90;;;;;;5073052;28;20893;-49
2023/07/12 04:17:49;;;;;;;4.90;2.83;;;28.80;54.80;;;;;;5066346;28;20438;-52
2023/07/12 04:20:15;;;;;;;2.70;2.50;;;28.70;54.80;;;;;;5065472;28;20233;-48
2023/07/12 04:22:41;;;;;;;4.10;2.97;;;28.70;55.20;;;;;;5067231;28;20191;-47
2023/07/12 04:25:08;;;;;;;5.47;3.00;;;28.50;55.70;;;;;;5063631;28;20251;-48
2023/07/12 04:27:37;;;;;;;3.67;3.30;;;28.50;55.60;;;;;;5069427;28;20227;-50
2023/07/12 04:30:05;;;;;;;6.80;2.50;;;28.40;56.20;;;;;;5066053;28;20443;-50
2023/07/12 04:32:30;;;;;;;4.50;3.27;;;28.40;56.10;;;;;;5071763;28;20423;-48
2023/07/12 04:34:56;;;;;;;3.40;2.77;;;28.50;56.00;;;;;;5070237;28;20827;-49
2023/07/12 04:37:22;;;;;;;3.53;2.73;;;28.60;55.60;;;;;;5073354;28;20188;-48
2023/07/12 04:39:48;;;;;;;3.60;3.30;;;28.70;55.50;;;;;;5072183;28;20287;-47
2023/07/12 04:42:14;;;;;;;6.60;2.73;;;28.70;55.20;;;;;;5072789;28;20597;-50
2023/07/12 04:44:40;;;;;;;6.33;3.20;;;28.80;55.00;;;;;;5072348;28;20199;-51
2023/07/12 04:47:08;;;;;;;2.70;2.50;;;28.60;53.40;;;;;;5072503;28;20417;-48
2023/07/12 04:49:34;;;;;;;6.83;2.83;;;28.50;55.00;;;;;;5062742;28;20234;-46
2023/07/12 04:52:00;;;;;;;3.63;3.33;;;28.60;55.10;;;;;;5063098;28;20807;-51
2023/07/12 04:54:26;;;;;;;3.57;3.07;;;28.70;55.30;;;;;;5072285;28;20207;-50
2023/07/12 04:56:51;;;;;;;3.40;2.97;;;28.70;55.40;;;;;;5069464;28;20642;-49
2023/07/12 04:59:18;;;;;;;3.87;3.40;;;28.80;55.10;;;;;;5058434;28;20200;-46
2023/07/12 05:01:45;;;;;;;5.17;2.80;;;28.70;54.70;;;;;;5063746;28;20196;-51
2023/07/12 05:04:11;;;;;;;4.10;2.80;;;28.80;54.70;;;;;;5065023;28;20457;-49
2023/07/12 05:06:37;;;;;;;4.43;2.67;;;28.90;54.60;;;;;;5071203;28;20430;-50
2023/07/12 05:09:03;;;;;;;7.20;3.50;;;28.90;54.50;;;;;;5077012;28;20898;-51
2023/07/12 05:11:29;;;;;;;5.57;2.93;;;29.00;54.60;;;;;;5078068;28;20227;-47
2023/07/12 05:13:54;;;;;;;7.43;2.90;;;28.80;54.90;;;;;;5024462;28;1109698;-51
2023/07/12 05:16:20;;;;;;;4.00;3.30;;;28.70;54.90;;;;;;5083992;28;20619;-47
2023/07/12 05:18:46;;;;;;;3.67;2.67;;;28.80;54.90;;;;;;5073512;28;20227;-48
2023/07/12 05:21:12;;;;;;;4.80;2.90;;;28.80;55.00;;;;;;5061711;28;20981;-49
2023/07/12 05:23:39;;;;;;;5.23;3.07;;;28.80;55.20;;;;;;5064779;28;20196;-48
2023/07/12 05:26:05;;;;;;;8.50;3.63;;;28.70;55.30;;;;;;5067407;28;20477;-47
2023/07/12 05:28:31;;;;;;;5.93;3.40;;;28.80;55.10;;;;;;5064535;28;20478;-50
2023/07/12 05:30:56;;;;;;;3.93;2.83;;;28.50;56.30;;;;;;5068043;28;20190;-47
2023/07/12 05:33:22;;;;;;;4.43;3.27;;;28.50;56.00;;;;;;5065942;28;20196;-47
2023/07/12 05:35:47;;;;;;;4.57;3.73;;;28.70;55.70;;;;;;5067356;28;20224;-50
2023/07/12 05:38:13;;;;;;;4.40;3.07;;;28.70;56.20;;;;;;5070777;28;20200;-46
2023/07/12 05:40:39;;;;;;;3.47;2.90;;;28.70;55.80;;;;;;5069306;28;20195;-49
2023/07/12 05:43:04;;;;;;;8.20;3.77;;;28.80;55.50;;;;;;5064236;28;20224;-48
2023/07/12 05:45:30;;;;;;;5.57;3.60;;;28.80;55.80;;;;;;5072568;28;20214;-48
2023/07/12 05:47:55;;;;;;;5.30;4.13;;;28.90;55.90;;;;;;5066212;28;20188;-47
2023/07/12 05:50:21;;;;;;;6.03;3.97;;;28.90;55.90;;;;;;5075484;28;20199;-48
2023/07/12 05:52:47;;;;;;;4.77;4.30;;;28.60;56.10;;;;;;5072543;28;20216;-48
2023/07/12 05:55:17;;;;;;;7.27;4.50;;;28.50;56.60;;;;;;5073422;28;20663;-48
2023/07/12 05:57:44;;;;;;;8.07;4.17;;;28.50;56.70;;;;;;5068584;28;20442;-49
2023/07/12 06:00:10;;;;;;;12.47;4.23;;;28.60;56.70;;;;;;5072999;28;20448;-49
2023/07/12 06:02:37;;;;;;;5.47;4.17;;;28.40;56.70;;;;;;5072745;28;20909;-50
2023/07/12 06:05:04;;;;;;;7.57;4.93;;;28.40;57.20;;;;;;5072868;28;20437;-48
2023/07/12 06:07:30;;;;;;;5.33;4.27;;;28.30;57.60;;;;;;5074404;28;20446;-48
2023/07/12 06:09:55;;;;;;;6.47;4.10;;;28.30;58.00;;;;;;5073765;28;20456;-48
2023/07/12 06:12:21;;;;;;;7.53;4.20;;;28.30;57.80;;;;;;5073820;28;20196;-48
2023/07/12 06:14:46;;;;;;;10.33;4.90;;;28.10;58.40;;;;;;5083680;28;20219;-47
2023/07/12 06:17:12;;;;;;;6.40;4.10;;;28.20;58.30;;;;;;5083050;28;20214;-48
2023/07/12 06:19:37;;;;;;;6.50;4.50;;;28.20;58.40;;;;;;5072568;28;20219;-48
2023/07/12 06:22:04;;;;;;;9.03;4.70;;;27.70;59.10;;;;;;5066400;28;20200;-51
2023/07/12 06:24:29;;;;;;;7.70;5.03;;;27.90;59.30;;;;;;5072521;28;20995;-48
2023/07/12 06:26:55;;;;;;;7.77;4.40;;;28.00;59.00;;;;;;5075445;28;20532;-48
2023/07/12 06:29:21;;;;;;;6.90;4.93;;;28.20;58.90;;;;;;5065821;28;20662;-48
2023/07/12 06:31:47;;;;;;;7.07;4.83;;;28.10;58.60;;;;;;5070668;28;20188;-48
2023/07/12 06:34:13;;;;;;;6.40;4.47;;;28.10;58.70;;;;;;5070952;28;20449;-48
2023/07/12 06:36:38;;;;;;;5.30;4.30;;;27.90;59.30;;;;;;5071338;28;20714;-51
2023/07/12 06:39:04;;;;;;;5.87;5.27;;;27.70;60.00;;;;;;5080127;28;20223;-48
2023/07/12 06:41:30;;;;;;;6.90;4.40;;;27.70;60.20;;;;;;5068849;28;20183;-51
2023/07/12 06:43:56;;;;;;;5.30;4.40;;;28.00;60.00;;;;;;5071819;28;20203;-47
2023/07/12 06:46:22;;;;;;;6.23;4.70;;;28.20;59.40;;;;;;5072567;28;20187;-45
2023/07/12 06:48:47;;;;;;;7.37;4.60;;;28.40;59.20;;;;;;5066607;28;20966;-46
2023/07/12 06:51:13;;;;;;;8.30;4.57;;;28.50;59.30;;;;;;5062008;28;20426;-47
2023/07/12 06:53:39;;;;;;;34.53;8.53;;;28.60;58.60;;;;;;5061381;28;20203;-50
2023/07/12 06:56:05;;;;;;;8.33;4.97;;;28.80;58.50;;;;;;5070348;28;20215;-46
2023/07/12 06:58:30;;;;;;;7.40;5.13;;;29.00;57.60;;;;;;5070242;28;20206;-49
2023/07/12 07:00:58;;;;;;;6.60;4.13;;;29.00;57.10;;;;;;5071253;28;20635;-47
2023/07/12 07:03:24;;;;;;;17.50;6.03;;;29.00;57.10;;;;;;5063042;28;20208;-46
2023/07/12 07:05:49;;;;;;;8.70;5.20;;;29.00;57.40;;;;;;5067469;28;20486;-47
2023/07/12 07:08:18;;;;;;;11.90;5.07;;;28.90;57.60;;;;;;5069015;28;20188;-46
2023/07/12 07:10:49;;;;;;;9.10;4.70;;;29.10;57.80;;;;;;5069352;28;20196;-46
2023/07/12 07:13:14;;;;;;;8.17;5.23;;;29.20;57.40;;;;;;5069783;28;20469;-47
2023/07/12 07:15:40;;;;;;;7.23;5.20;;;29.20;56.90;;;;;;5064410;28;20962;-46
2023/07/12 07:18:07;;;;;;;11.97;4.50;;;29.30;57.50;;;;;;5070732;28;20218;-46
2023/07/12 07:20:33;;;;;;;10.40;5.90;;;29.20;57.40;;;;;;5066770;28;20249;-48
2023/07/12 07:22:59;;;;;;;7.13;4.80;;;29.20;56.90;;;;;;5076579;28;20437;-47
2023/07/12 07:25:28;;;;;;;8.93;4.97;;;29.30;57.50;;;;;;5072582;28;20843;-48
2023/07/12 07:27:54;;;;;;;8.77;4.50;;;29.50;57.20;;;;;;5064647;28;20207;-45
2023/07/12 07:30:20;;;;;;;6.13;4.43;;;29.50;56.80;;;;;;5068616;28;20430;-47
2023/07/12 07:32:46;;;;;;;5.77;4.60;;;29.50;54.70;;;;;;5068607;28;20444;-45
2023/07/12 07:35:11;;;;;;;4.67;4.27;;;29.50;52.80;;;;;;5066241;28;20678;-46
2023/07/12 07:37:37;;;;;;;6.53;3.80;;;29.70;52.60;;;;;;5063298;28;20199;-47
2023/07/12 07:40:04;;;;;;;5.20;4.70;;;29.50;51.30;;;;;;5070641;28;20195;-45
2023/07/12 07:42:29;;;;;;;4.60;3.83;;;29.40;51.80;;;;;;5067316;28;20195;-45
2023/07/12 07:44:55;;;;;;;4.80;3.60;;;29.50;51.90;;;;;;5074745;28;20441;-47
2023/07/12 07:47:21;;;;;;;7.83;4.07;;;29.50;50.30;;;;;;5070940;28;20199;-45
2023/07/12 07:49:47;;;;;;;4.50;3.70;;;29.30;50.90;;;;;;5061259;28;20200;-52
2023/07/12 07:52:12;;;;;;;4.90;4.27;;;29.50;50.90;;;;;;5067413;28;20453;-51
2023/07/12 07:54:41;;;;;;;6.00;4.10;;;29.50;49.90;;;;;;5065437;28;20459;-47
2023/07/12 07:57:07;;;;;;;7.10;3.50;;;29.30;49.50;;;;;;5065843;28;20198;-49
2023/07/12 07:59:33;;;;;;;4.97;3.47;;;29.20;50.20;;;;;;5067834;28;20447;-49
2023/07/12 08:01:58;;;;;;;6.17;4.70;;;29.50;50.70;;;;;;5077755;28;20564;-48
2023/07/12 08:04:24;;;;;;;7.73;4.17;;;29.70;49.10;;;;;;5065836;28;20193;-48
2023/07/12 08:06:50;;;;;;;4.30;3.50;;;29.90;49.50;;;;;;5064179;28;20188;-47
2023/07/12 08:09:16;;;;;;;4.80;3.50;;;30.20;48.70;;;;;;5065256;28;20439;-47
2023/07/12 08:11:42;;;;;;;5.03;3.40;;;30.30;48.30;;;;;;5061812;28;20295;-48
2023/07/12 08:14:08;;;;;;;4.13;2.97;;;30.50;47.70;;;;;;5063781;28;20237;-47
2023/07/12 08:16:37;;;;;;;5.47;4.30;;;30.50;46.90;;;;;;5063674;28;21026;-48
2023/07/12 08:19:03;;;;;;;5.60;3.33;;;30.40;47.10;;;;;;5062717;28;20438;-47
2023/07/12 08:21:29;;;;;;;5.40;3.50;;;30.50;47.00;;;;;;5067157;28;20450;-47
2023/07/12 08:23:55;;;;;;;6.47;3.47;;;30.50;47.20;;;;;;5069489;28;20842;-46
2023/07/12 08:26:21;;;;;;;3.90;3.07;;;30.30;47.00;;;;;;5066306;28;20438;-47
2023/07/12 08:28:47;;;;;;;4.20;3.20;;;30.60;47.00;;;;;;5062763;28;20262;-52
2023/07/12 08:31:14;;;;;;;4.10;3.70;;;30.70;46.40;;;;;;5080764;28;20464;-48
2023/07/12 08:33:43;;;;;;;4.93;3.00;;;30.70;46.60;;;;;;5074125;28;20428;-48
2023/07/12 08:36:13;;;;;;;4.30;3.20;;;30.90;46.30;;;;;;5072017;28;20891;-47
2023/07/12 08:38:39;;;;;;;4.87;3.47;;;31.10;45.70;;;;;;5059920;28;20447;-46
2023/07/12 08:41:13;;;;;;;5.40;3.30;;;31.20;45.60;;;;;;5068267;28;20510;-51
2023/07/12 08:43:39;;;;;;;8.57;3.70;;;31.20;46.00;;;;;;5066142;28;20446;-49
2023/07/12 08:46:13;;;;;;;5.60;3.87;;;31.20;46.50;;;;;;5073574;28;20518;-47
2023/07/12 08:48:39;;;;;;;7.03;3.50;;;31.30;45.90;;;;;;5064291;28;20464;-49
2023/07/12 08:51:17;;;;;;;3.57;3.27;;;31.40;45.40;;;;;;5070304;28;20448;-50
2023/07/12 08:53:44;;;;;;;6.37;3.57;;;31.40;44.80;;;;;;5074232;28;20861;-47
2023/07/12 08:56:14;;;;;;;4.80;3.60;;;31.50;44.90;;;;;;5073016;28;20485;-47
2023/07/12 08:58:49;;;;;;;5.20;4.43;;;31.60;46.20;;;;;;5067332;28;20504;-51
2023/07/12 09:01:43;;;;;;;5.30;3.50;;;31.60;45.30;;;;;;5064034;28;20438;-50
2023/07/12 09:04:25;;;;;;;4.77;3.40;;;31.60;44.70;;;;;;5066592;28;20520;-50
2023/07/12 09:06:55;;;;;;;5.10;3.67;;;31.50;44.60;;;;;;5073279;28;20430;-50
2023/07/12 09:09:22;;;;;;;4.30;3.83;;;31.40;45.00;;;;;;5065608;28;20514;-48
2023/07/12 09:11:48;;;;;;;5.30;3.53;;;31.30;44.90;;;;;;5072978;28;20429;-47
2023/07/12 09:14:19;;;;;;;6.00;3.53;;;31.60;44.80;;;;;;5070332;28;20950;-50
2023/07/12 09:16:47;;;;;;;4.40;3.60;;;31.80;45.60;;;;;;5066146;28;20487;-52
2023/07/12 09:19:18;;;;;;;3.90;3.10;;;31.90;44.70;;;;;;5068633;28;20460;-49
2023/07/12 09:21:54;;;;;;;4.30;3.97;;;31.90;43.50;;;;;;5065859;28;20453;-50
2023/07/12 09:24:27;;;;;;;8.40;4.00;;;31.50;43.40;;;;;;5060991;28;20450;-51
2023/07/12 09:27:06;;;;;;;5.80;3.33;;;31.50;44.10;;;;;;5073007;28;20431;-50
2023/07/12 09:29:38;;;;;;;3.87;3.50;;;31.70;44.30;;;;;;5072047;28;20461;-50
2023/07/12 09:32:22;;;;;;;3.73;3.30;;;31.80;43.80;;;;;;5066633;28;20435;-52
2023/07/12 09:34:50;;;;;;;5.30;4.07;;;31.80;43.10;;;;;;5070213;28;20529;-51
2023/07/12 09:37:21;;;;;;;4.70;4.20;;;32.10;42.90;;;;;;5070195;28;20438;-50
2023/07/12 09:39:56;;;;;;;5.73;3.70;;;32.10;42.90;;;;;;5066041;28;20470;-50
2023/07/12 09:42:23;;;;;;;6.03;3.40;;;32.10;42.90;;;;;;5055269;28;20492;-47
2023/07/12 09:44:50;;;;;;;4.03;3.67;;;32.30;42.10;;;;;;5060890;28;20439;-50
2023/07/12 09:47:39;;;;;;;5.07;4.17;;;32.40;42.40;;;;;;5067555;28;20447;-48
2023/07/12 09:50:20;;;;;;;7.00;3.37;;;32.20;41.70;;;;;;5064531;28;20450;-47
2023/07/12 09:53:23;;;;;;;4.00;3.70;;;32.30;42.30;;;;;;5069784;28;21239;-50
2023/07/12 09:55:57;;;;;;;3.90;3.53;;;32.30;42.40;;;;;;5071825;28;20484;-51
2023/07/12 09:58:34;;;;;;;4.73;3.50;;;32.30;42.10;;;;;;5071891;28;20429;-52
2023/07/12 10:01:03;;;;;;;4.30;3.90;;;32.50;42.00;;;;;;5060841;28;20533;-50
2023/07/12 10:03:42;;;;;;;3.97;3.53;;;33.00;41.70;;;;;;5067788;28;20446;-51
2023/07/12 10:06:22;;;;;;;4.37;3.97;;;33.30;40.30;;;;;;5065029;28;20466;-51
2023/07/12 10:09:04;;;;;;;5.30;3.70;;;33.30;39.80;;;;;;5063686;28;20502;-52
2023/07/12 10:11:59;;;;;;;4.13;3.57;;;33.50;39.90;;;;;;5069861;28;20452;-50
2023/07/12 10:14:32;;;;;;;4.07;3.67;;;33.90;40.20;;;;;;5066702;28;20569;-49
2023/07/12 10:17:01;;;;;;;5.87;3.67;;;33.80;39.10;;;;;;5065914;28;20482;-47
2023/07/12 10:19:34;;;;;;;5.20;4.07;;;34.00;39.50;;;;;;5064386;28;20521;-49
2023/07/12 10:22:04;;;;;;;3.40;3.10;;;34.20;39.40;;;;;;5070130;28;20932;-50
2023/07/12 10:24:53;;;;;;;3.90;3.50;;;34.50;39.30;;;;;;5061030;28;20445;-47
2023/07/12 10:27:27;;;;;;;6.10;3.73;;;34.80;38.50;;;;;;5061627;28;20521;-51
2023/07/12 10:30:14;;;;;;;6.30;3.30;;;34.90;37.80;;;;;;5069644;28;20940;-50
2023/07/12 10:32:45;;;;;;;4.40;3.70;;;34.20;39.70;;;;;;5059279;28;20501;-48
2023/07/12 10:35:40;;;;;;;4.00;3.60;;;33.90;39.20;;;;;;5072277;28;20497;-48
2023/07/12 10:38:13;;;;;;;6.17;3.40;;;34.00;39.00;;;;;;5061130;28;20446;-47
2023/07/12 10:40:54;;;;;;;3.50;3.20;;;33.90;39.10;;;;;;5067125;28;20587;-48
2023/07/12 10:43:26;;;;;;;5.87;3.53;;;33.80;39.10;;;;;;5076111;28;20447;-49
2023/07/12 10:46:03;;;;;;;4.50;3.90;;;34.20;38.10;;;;;;5061855;28;20445;-48
2023/07/12 10:48:31;;;;;;;4.00;3.47;;;34.40;38.60;;;;;;5063256;28;20960;-50
2023/07/12 10:51:16;;;;;;;4.70;3.40;;;34.90;38.10;;;;;;5068975;28;20968;-49
2023/07/12 10:53:51;;;;;;;3.37;3.00;;;35.30;36.90;;;;;;5063436;28;20446;-48
2023/07/12 10:56:23;;;;;;;3.50;3.20;;;35.40;37.00;;;;;;5067970;28;20481;-48
2023/07/12 10:58:57;;;;;;;3.87;3.47;;;35.40;36.90;;;;;;5064550;28;20434;-49
2023/07/12 11:01:38;;;;;;;4.03;3.63;;;35.60;36.40;;;;;;5060704;28;20581;-48
2023/07/12 11:04:13;;;;;;;8.13;4.50;;;35.60;35.60;;;;;;5058179;28;20445;-52
2023/07/12 11:07:22;;;;;;;5.47;3.60;;;35.40;35.60;;;;;;5070489;28;20529;-49
2023/07/12 11:09:50;;;;;;;5.13;3.90;;;35.60;35.90;;;;;;5069854;28;20441;-45
2023/07/12 11:12:31;;;;;;;4.23;3.70;;;35.20;35.70;;;;;;5082664;28;20445;-47
2023/07/12 11:15:04;;;;;;;4.20;3.40;;;34.80;36.00;;;;;;5059333;28;20469;-45
2023/07/12 11:18:03;;;;;;;3.50;3.20;;;34.60;35.80;;;;;;5068359;28;20454;-47
2023/07/12 11:20:34;;;;;;;8.10;3.70;;;34.30;36.80;;;;;;5069130;28;20479;-48
2023/07/12 11:23:07;;;;;;;6.97;3.70;;;34.20;36.30;;;;;;5063204;28;20447;-46
2023/07/12 11:25:52;;;;;;;3.90;3.57;;;34.30;36.80;;;;;;5064277;28;20519;-50
2023/07/12 11:28:24;;;;;;;5.53;3.90;;;34.50;36.80;;;;;;5070663;28;20450;-51
2023/07/12 11:31:14;;;;;;;3.67;3.37;;;34.70;35.90;;;;;;5072984;28;20453;-46
2023/07/12 11:33:50;;;;;;;3.67;3.37;;;34.30;35.60;;;;;;5072813;28;20449;-49
2023/07/12 11:36:28;;;;;;;7.17;4.33;;;34.30;36.00;;;;;;5061791;28;20481;-48
2023/07/12 11:38:56;;;;;;;7.10;4.07;;;34.60;35.30;;;;;;5066681;28;20537;-50
2023/07/12 11:41:24;;;;;;;4.47;4.00;;;34.90;35.50;;;;;;5072896;28;20449;-48
2023/07/12 11:44:05;;;;;;;4.67;4.27;;;35.00;35.60;;;;;;5072076;28;20422;-47
2023/07/12 11:46:37;;;;;;;9.20;4.03;;;34.70;34.50;;;;;;5066670;28;20482;-50
2023/07/12 11:49:17;;;;;;;4.90;4.30;;;34.60;34.70;;;;;;5068968;28;20430;-51
2023/07/12 11:51:46;;;;;;;5.03;4.63;;;34.50;34.80;;;;;;5068496;28;20441;-47
2023/07/12 11:54:24;;;;;;;4.30;4.00;;;34.80;35.30;;;;;;5066691;28;20536;-47
2023/07/12 11:56:52;;;;;;;6.57;4.40;;;35.00;33.40;;;;;;5065328;28;20583;-47
2023/07/12 11:59:23;;;;;;;4.97;4.57;;;34.90;33.70;;;;;;5052121;28;20447;-51
2023/07/12 12:01:51;;;;;;;6.40;4.10;;;34.90;33.20;;;;;;5068924;28;20449;-48
2023/07/12 12:04:27;;;;;;;5.70;4.17;;;34.80;33.60;;;;;;5061103;28;20468;-52
2023/07/12 12:07:12;;;;;;;4.93;4.53;;;35.20;33.30;;;;;;5059743;28;21197;-47
2023/07/12 12:09:38;;;;;;;4.53;4.13;;;35.40;35.40;;;;;;5065164;28;20804;-49
2023/07/12 12:12:07;;;;;;;5.00;3.50;;;35.60;35.40;;;;;;5066118;28;20452;-48
2023/07/12 12:14:41;;;;;;;4.33;3.80;;;35.90;35.40;;;;;;5058995;28;20216;-47
2023/07/12 12:17:27;;;;;;;5.83;4.40;;;35.90;35.00;;;;;;5067044;28;20453;-48
2023/07/12 12:20:12;;;;;;;4.20;3.80;;;36.10;34.90;;;;;;5051935;28;20447;-49
2023/07/12 12:22:41;;;;;;;4.60;3.80;;;36.10;34.60;;;;;;5053229;28;20479;-51
2023/07/12 12:25:16;;;;;;;5.70;4.20;;;35.80;34.40;;;;;;5061245;28;20459;-50
2023/07/12 12:27:43;;;;;;;4.43;4.03;;;35.80;35.40;;;;;;5062078;28;20441;-49
2023/07/12 12:30:15;;;;;;;3.83;3.47;;;36.10;35.40;;;;;;5072012;28;22285;-50
2023/07/12 12:32:43;;;;;;;4.60;4.30;;;36.30;34.40;;;;;;5069059;28;20449;-47
2023/07/12 12:35:13;;;;;;;5.30;3.80;;;36.40;34.30;;;;;;5069486;28;20539;-48
2023/07/12 12:37:40;;;;;;;4.27;3.97;;;36.40;34.10;;;;;;5070752;28;20449;-45
2023/07/12 12:40:20;;;;;;;5.30;4.27;;;36.30;34.90;;;;;;5069753;28;20523;-47
2023/07/12 12:43:01;;;;;;;5.33;4.00;;;36.40;35.20;;;;;;5078343;28;20473;-48
2023/07/12 12:45:36;;;;;;;5.80;3.60;;;36.50;34.60;;;;;;5074279;28;20491;-50
2023/07/12 12:48:04;;;;;;;4.90;4.30;;;36.70;33.40;;;;;;5072710;28;20830;-48
2023/07/12 12:50:30;;;;;;;5.67;4.00;;;36.70;33.00;;;;;;5066072;28;20985;-51
2023/07/12 12:53:01;;;;;;;5.83;4.30;;;36.70;33.40;;;;;;5064046;28;20441;-48
2023/07/12 12:55:28;;;;;;;4.77;4.37;;;36.70;33.70;;;;;;5067708;28;22606;-51